Time;durP1;ratioP1;P1;durP2;ratioP2;P2;SDS_P1;SDS_P2;PMS_P1;PMS_P2;Temp;Humidity;BMP_temperature;BMP_pressure;BME280_temperature;BME280_humidity;BME280_pressure;Samples;Min_cycle;Max_cycle;Signal;HPM_P1;HPM_P2
2023/09/11 00:03:06;;;;;;;6.85;3.42;;;;;;;;;;12674220;23;20018;-78
2023/09/11 00:08:11;;;;;;;4.25;2.78;;;;;;;;;;12673164;23;20519;-78
2023/09/11 00:13:14;;;;;;;7.20;3.35;;;;;;;;;;12643479;23;20018;-78
2023/09/11 00:18:18;;;;;;;5.03;3.10;;;;;;;;;;12668673;23;20052;-78
2023/09/11 00:23:23;;;;;;;4.93;2.72;;;;;;;;;;12668656;23;20022;-77
2023/09/11 00:28:26;;;;;;;5.05;2.67;;;;;;;;;;12643142;23;20022;-77
2023/09/11 00:33:29;;;;;;;5.20;2.63;;;;;;;;;;12672112;23;20049;-78
2023/09/11 00:38:34;;;;;;;4.13;2.47;;;;;;;;;;12665630;23;20021;-88
2023/09/11 00:43:37;;;;;;;6.07;2.70;;;;;;;;;;12715615;23;20095;-89
2023/09/11 00:48:41;;;;;;;3.67;2.40;;;;;;;;;;12638591;23;20026;-89
2023/09/11 00:53:46;;;;;;;4.75;2.58;;;;;;;;;;12599229;23;20054;-88
2023/09/11 00:58:51;;;;;;;5.03;2.87;;;;;;;;;;12712210;23;20034;-88
2023/09/11 01:03:55;;;;;;;4.28;2.50;;;;;;;;;;12696589;23;20026;-89
2023/09/11 01:08:59;;;;;;;6.25;2.30;;;;;;;;;;12695393;23;20022;-90
2023/09/11 01:14:03;;;;;;;6.30;2.60;;;;;;;;;;12695459;23;20033;-89
2023/09/11 01:19:18;;;;;;;8.70;2.65;;;;;;;;;;12720226;23;20029;-89
2023/09/11 01:24:58;;;;;;;4.97;2.53;;;;;;;;;;12694766;23;20040;-89
2023/09/11 01:30:04;;;;;;;5.47;2.72;;;;;;;;;;12695149;23;20018;-89
2023/09/11 01:35:08;;;;;;;6.85;3.05;;;;;;;;;;12695083;23;20026;-89
2023/09/11 01:40:12;;;;;;;5.13;2.60;;;;;;;;;;12685558;23;20038;-90
2023/09/11 01:45:18;;;;;;;5.75;3.15;;;;;;;;;;12718206;23;20092;-89
2023/09/11 01:50:24;;;;;;;3.70;2.67;;;;;;;;;;12717474;23;20079;-89
2023/09/11 01:55:29;;;;;;;;;;;;;;;;;;12718096;23;20076;-90
2023/09/11 02:00:34;;;;;;;3.00;2.50;;;;;;;;;;12718781;23;19926;-89
2023/09/11 02:05:38;;;;;;;5.70;2.50;;;;;;;;;;12721894;23;20457;-90
2023/09/11 02:10:41;;;;;;;6.15;2.92;;;;;;;;;;12721010;23;20108;-90
2023/09/11 02:15:46;;;;;;;3.35;2.20;;;;;;;;;;12696437;23;20030;-89
2023/09/11 02:20:50;;;;;;;5.30;2.70;;;;;;;;;;12696106;23;20477;-88
2023/09/11 02:25:53;;;;;;;5.28;2.47;;;;;;;;;;12721700;23;20029;-89
2023/09/11 02:30:58;;;;;;;5.60;2.90;;;;;;;;;;12721807;23;20060;-89
2023/09/11 02:36:02;;;;;;;5.18;2.60;;;;;;;;;;12694724;23;20088;-91
2023/09/11 02:41:06;;;;;;;6.55;2.63;;;;;;;;;;12696122;23;20022;-90
2023/09/11 02:46:13;;;;;;;4.78;2.30;;;;;;;;;;12697392;23;20852;-89
2023/09/11 02:51:19;;;;;;;3.65;2.13;;;;;;;;;;12722290;23;20577;-90
2023/09/11 02:56:22;;;;;;;3.50;2.65;;;;;;;;;;12696078;23;20044;-89
2023/09/11 03:01:29;;;;;;;4.63;2.88;;;;;;;;;;12722336;23;20033;-89
2023/09/11 03:06:33;;;;;;;5.28;2.47;;;;;;;;;;12696902;23;20080;-89
2023/09/11 03:11:40;;;;;;;3.40;2.33;;;;;;;;;;12697445;23;20072;-89
2023/09/11 03:16:46;;;;;;;5.22;2.90;;;;;;;;;;12721797;23;20041;-90
2023/09/11 03:21:51;;;;;;;5.10;2.08;;;;;;;;;;12699976;23;20076;-91
2023/09/11 03:26:56;;;;;;;3.47;2.45;;;;;;;;;;12723861;23;20030;-91
2023/09/11 03:32:01;;;;;;;4.60;2.37;;;;;;;;;;12702778;23;20021;-89
2023/09/11 03:37:05;;;;;;;3.95;2.65;;;;;;;;;;12697549;23;20037;-88
2023/09/11 03:42:08;;;;;;;5.57;2.53;;;;;;;;;;12723043;23;20026;-89
2023/09/11 03:47:13;;;;;;;5.00;2.25;;;;;;;;;;12723924;23;20026;-91
2023/09/11 03:52:17;;;;;;;3.80;2.43;;;;;;;;;;12700028;23;20045;-89
2023/09/11 03:57:21;;;;;;;4.15;2.38;;;;;;;;;;12699264;23;20025;-90
2023/09/11 04:02:26;;;;;;;4.95;2.55;;;;;;;;;;12699900;23;20084;-89
2023/09/11 04:07:29;;;;;;;3.47;2.30;;;;;;;;;;12722897;23;20026;-90
2023/09/11 04:12:33;;;;;;;5.85;2.90;;;;;;;;;;12699495;23;20855;-89
2023/09/11 04:17:37;;;;;;;7.85;2.70;;;;;;;;;;12697910;23;20132;-89
2023/09/11 04:22:41;;;;;;;5.70;2.25;;;;;;;;;;12724781;23;20025;-88
2023/09/11 04:27:45;;;;;;;4.30;2.75;;;;;;;;;;12721586;23;20049;-90
2023/09/11 04:32:49;;;;;;;5.50;2.30;;;;;;;;;;12698596;23;20022;-90
2023/09/11 04:37:54;;;;;;;4.60;2.37;;;;;;;;;;12694251;23;20029;-90
2023/09/11 04:42:58;;;;;;;6.32;2.53;;;;;;;;;;12697820;23;20112;-90
2023/09/11 04:48:03;;;;;;;4.38;2.67;;;;;;;;;;12720078;23;20021;-87
2023/09/11 04:53:06;;;;;;;4.50;2.55;;;;;;;;;;12715527;23;20044;-87
2023/09/11 04:58:10;;;;;;;6.47;2.88;;;;;;;;;;12696885;23;20033;-87
2023/09/11 05:03:15;;;;;;;5.85;2.30;;;;;;;;;;12697419;23;20030;-87
2023/09/11 05:08:18;;;;;;;3.63;2.20;;;;;;;;;;12695639;23;20041;-88
2023/09/11 05:13:22;;;;;;;4.25;2.38;;;;;;;;;;12695789;23;20413;-87
2023/09/11 05:18:28;;;;;;;6.70;2.63;;;;;;;;;;12694778;23;20353;-88
2023/09/11 05:23:32;;;;;;;4.93;2.33;;;;;;;;;;12719935;23;20076;-87
2023/09/11 05:28:35;;;;;;;7.20;2.35;;;;;;;;;;12720051;23;20057;-88
2023/09/11 05:33:40;;;;;;;3.97;2.28;;;;;;;;;;12722419;23;20072;-85
2023/09/11 05:38:44;;;;;;;3.83;2.35;;;;;;;;;;12716918;23;20516;-86
2023/09/11 05:43:48;;;;;;;6.30;2.20;;;;;;;;;;12698184;23;20021;-86
2023/09/11 05:48:52;;;;;;;4.28;2.40;;;;;;;;;;12697977;23;20030;-87
2023/09/11 05:53:56;;;;;;;6.88;2.55;;;;;;;;;;12698028;23;20032;-87
2023/09/11 05:58:59;;;;;;;5.90;2.45;;;;;;;;;;12722492;23;20036;-87
2023/09/11 06:04:04;;;;;;;4.80;2.53;;;;;;;;;;12695510;23;20524;-87
2023/09/11 06:09:08;;;;;;;4.03;2.10;;;;;;;;;;12719738;23;20495;-86
2023/09/11 06:14:12;;;;;;;3.35;2.10;;;;;;;;;;12718717;23;20025;-86
2023/09/11 06:19:17;;;;;;;5.70;2.70;;;;;;;;;;12720869;23;20026;-86
2023/09/11 06:24:21;;;;;;;5.82;1.85;;;;;;;;;;12695151;23;20043;-87
2023/09/11 06:29:24;;;;;;;3.72;2.28;;;;;;;;;;12719180;23;20032;-88
2023/09/11 06:34:29;;;;;;;6.70;2.13;;;;;;;;;;12695216;23;20014;-87
2023/09/11 06:39:33;;;;;;;4.43;2.40;;;;;;;;;;12694709;23;20025;-87
2023/09/11 06:44:36;;;;;;;5.22;2.20;;;;;;;;;;12694020;23;20127;-87
2023/09/11 06:49:41;;;;;;;3.92;2.20;;;;;;;;;;12720301;23;20099;-86
2023/09/11 06:54:45;;;;;;;2.78;1.90;;;;;;;;;;12694635;23;20021;-87
2023/09/11 06:59:48;;;;;;;5.45;1.80;;;;;;;;;;12718709;23;20327;-87
2023/09/11 07:04:53;;;;;;;6.60;2.08;;;;;;;;;;12694642;23;20072;-89
2023/09/11 18:24:58;;;;;;;9.02;2.20;;;;;;;;;;13099608;22;20023;-77
2023/09/11 18:30:02;;;;;;;6.65;2.47;;;;;;;;;;13108212;22;20034;-77
2023/09/11 18:35:07;;;;;;;3.67;1.95;;;;;;;;;;13076911;22;20046;-77
2023/09/11 18:40:12;;;;;;;4.47;1.95;;;;;;;;;;13116828;22;20035;-77
2023/09/11 18:45:15;;;;;;;4.22;2.10;;;;;;;;;;13034592;22;20019;-76
2023/09/11 18:50:19;;;;;;;3.92;2.10;;;;;;;;;;13063982;22;20015;-76
2023/09/11 18:55:24;;;;;;;5.80;2.47;;;;;;;;;;13040808;22;20019;-77
2023/09/11 19:00:27;;;;;;;4.03;2.20;;;;;;;;;;13041782;22;20088;-77
2023/09/11 19:05:30;;;;;;;4.78;2.63;;;;;;;;;;13062589;22;20072;-77
2023/09/11 19:10:35;;;;;;;6.88;2.03;;;;;;;;;;13062308;22;20023;-77
2023/09/11 19:15:38;;;;;;;5.73;2.27;;;;;;;;;;13064059;22;20098;-77
2023/09/11 19:20:42;;;;;;;3.80;2.10;;;;;;;;;;13068978;22;20027;-77
2023/09/11 19:25:46;;;;;;;6.13;2.17;;;;;;;;;;13066645;22;20026;-77
2023/09/11 19:30:49;;;;;;;5.93;2.47;;;;;;;;;;13062318;22;20065;-76
2023/09/11 19:35:53;;;;;;;6.55;2.28;;;;;;;;;;13061553;22;20644;-77
2023/09/11 19:40:57;;;;;;;6.25;2.33;;;;;;;;;;13044131;22;20045;-77
2023/09/11 19:46:01;;;;;;;5.20;2.47;;;;;;;;;;13060431;22;20030;-77
2023/09/11 19:51:04;;;;;;;4.95;2.30;;;;;;;;;;13060239;22;20068;-77
2023/09/11 19:56:09;;;;;;;4.53;2.50;;;;;;;;;;13059400;22;20050;-77
2023/09/11 20:01:12;;;;;;;8.30;2.40;;;;;;;;;;13057522;22;20019;-77
2023/09/11 20:06:15;;;;;;;3.78;2.13;;;;;;;;;;13058874;22;20046;-77
2023/09/11 20:11:20;;;;;;;5.53;2.50;;;;;;;;;;13059136;22;20015;-77
2023/09/11 20:16:23;;;;;;;4.90;2.13;;;;;;;;;;13042449;22;20024;-77
2023/09/11 20:21:26;;;;;;;4.07;2.22;;;;;;;;;;13057879;22;20026;-76
2023/09/11 20:26:31;;;;;;;5.38;2.38;;;;;;;;;;13057748;22;20019;-77
2023/09/11 20:31:34;;;;;;;3.85;2.45;;;;;;;;;;13057668;22;20094;-77
2023/09/11 20:36:38;;;;;;;6.93;2.47;;;;;;;;;;13056703;22;20034;-76
2023/09/11 20:41:42;;;;;;;6.15;2.55;;;;;;;;;;13051855;22;20033;-77
2023/09/11 20:46:46;;;;;;;5.07;2.70;;;;;;;;;;13037353;22;20098;-77
2023/09/11 20:51:49;;;;;;;3.83;2.40;;;;;;;;;;13052333;22;20023;-77
2023/09/11 20:56:53;;;;;;;6.45;2.97;;;;;;;;;;13011762;22;20024;-77
2023/09/11 21:01:57;;;;;;;4.28;2.58;;;;;;;;;;13037146;22;20035;-77
2023/09/11 21:07:00;;;;;;;6.00;2.97;;;;;;;;;;13012027;22;20015;-77
2023/09/11 21:12:06;;;;;;;5.55;2.75;;;;;;;;;;13018019;22;20075;-77
2023/09/11 21:17:09;;;;;;;4.40;2.70;;;;;;;;;;13044651;22;20360;-77
2023/09/11 21:22:12;;;;;;;5.40;2.45;;;;;;;;;;13053634;22;20022;-76
2023/09/11 21:27:17;;;;;;;5.15;2.65;;;;;;;;;;13042521;22;20098;-77
2023/09/11 21:32:20;;;;;;;6.13;2.95;;;;;;;;;;13015705;22;20065;-77
2023/09/11 21:37:23;;;;;;;5.95;2.55;;;;;;;;;;13052011;22;20114;-77
2023/09/11 21:42:28;;;;;;;5.10;2.78;;;;;;;;;;13014312;22;20046;-77
2023/09/11 21:47:31;;;;;;;6.63;2.83;;;;;;;;;;13053280;22;20338;-76
2023/09/11 21:52:35;;;;;;;4.47;2.40;;;;;;;;;;13015806;22;20102;-77
2023/09/11 21:57:39;;;;;;;7.30;2.85;;;;;;;;;;13053340;22;20050;-77
2023/09/11 22:02:42;;;;;;;4.90;2.60;;;;;;;;;;13053815;22;20098;-77
2023/09/11 22:07:46;;;;;;;6.40;2.83;;;;;;;;;;13016238;22;20042;-77
2023/09/11 22:12:50;;;;;;;2.92;2.17;;;;;;;;;;13054240;22;20037;-77
2023/09/11 22:17:54;;;;;;;5.75;2.53;;;;;;;;;;13044859;22;20046;-77
2023/09/11 22:22:57;;;;;;;3.97;2.40;;;;;;;;;;13053543;22;20380;-77
2023/09/11 22:28:02;;;;;;;3.88;2.50;;;;;;;;;;13053451;22;20058;-78
2023/09/11 22:33:05;;;;;;;5.28;2.40;;;;;;;;;;13053668;22;20038;-77
2023/09/11 22:38:11;;;;;;;4.15;2.35;;;;;;;;;;13044099;22;20027;-76
2023/09/11 22:43:16;;;;;;;5.95;2.33;;;;;;;;;;13051855;22;20043;-77
2023/09/11 22:48:19;;;;;;;6.32;2.45;;;;;;;;;;13051134;22;20414;-77
2023/09/11 22:53:22;;;;;;;3.97;2.20;;;;;;;;;;13051046;22;20065;-79
2023/09/11 22:58:27;;;;;;;3.22;2.30;;;;;;;;;;13051430;22;20046;-79
2023/09/11 23:03:40;;;;;;;4.35;2.42;;;;;;;;;;13051421;22;20103;-79
2023/09/11 23:08:44;;;;;;;3.33;2.05;;;;;;;;;;13017086;22;20505;-79
2023/09/11 23:13:48;;;;;;;4.60;2.20;;;;;;;;;;13049935;22;20015;-79
2023/09/11 23:18:52;;;;;;;2.60;1.80;;;;;;;;;;13017703;22;20067;-79
2023/09/11 23:23:56;;;;;;;3.63;2.10;;;;;;;;;;13050150;22;20019;-79
2023/09/11 23:29:01;;;;;;;6.55;2.30;;;;;;;;;;13017087;22;20654;-79
2023/09/11 23:34:05;;;;;;;6.28;2.90;;;;;;;;;;13049791;22;20053;-79
2023/09/11 23:39:09;;;;;;;4.53;2.50;;;;;;;;;;13044396;22;20443;-79
2023/09/11 23:44:15;;;;;;;5.20;2.63;;;;;;;;;;13048576;22;20015;-79
2023/09/11 23:49:18;;;;;;;3.22;2.30;;;;;;;;;;13016753;22;20106;-79
2023/09/11 23:54:21;;;;;;;5.43;2.58;;;;;;;;;;13048056;22;20080;-79
2023/09/11 23:59:26;;;;;;;4.57;2.47;;;;;;;;;;13017117;22;20522;-79
